sensor_id;sensor_type;location;lat;lon;timestamp;temperature;humidity
6307;DHT22;3186;54.062;9.962;2023-04-24T00:00:55;14.80;90.50
6307;DHT22;3186;54.062;9.962;2023-04-24T00:03:23;14.80;91.20
6307;DHT22;3186;54.062;9.962;2023-04-24T00:05:49;14.80;91.80
6307;DHT22;3186;54.062;9.962;2023-04-24T00:08:15;14.80;92.40
6307;DHT22;3186;54.062;9.962;2023-04-24T00:10:41;14.60;92.70
6307;DHT22;3186;54.062;9.962;2023-04-24T00:13:07;14.70;95.30
6307;DHT22;3186;54.062;9.962;2023-04-24T00:15:33;14.70;94.50
6307;DHT22;3186;54.062;9.962;2023-04-24T00:17:59;14.80;94.90
6307;DHT22;3186;54.062;9.962;2023-04-24T00:20:27;14.70;94.80
6307;DHT22;3186;54.062;9.962;2023-04-24T00:22:55;14.70;97.60
6307;DHT22;3186;54.062;9.962;2023-04-24T00:25:21;14.70;97.10
6307;DHT22;3186;54.062;9.962;2023-04-24T00:27:47;14.70;96.90
6307;DHT22;3186;54.062;9.962;2023-04-24T00:30:13;14.70;97.30
6307;DHT22;3186;54.062;9.962;2023-04-24T00:32:39;14.60;98.10
6307;DHT22;3186;54.062;9.962;2023-04-24T00:35:05;14.60;99.30
6307;DHT22;3186;54.062;9.962;2023-04-24T00:37:31;14.60;99.00
6307;DHT22;3186;54.062;9.962;2023-04-24T00:39:57;14.60;99.80
6307;DHT22;3186;54.062;9.962;2023-04-24T00:42:23;14.60;99.90
6307;DHT22;3186;54.062;9.962;2023-04-24T00:44:50;14.60;99.90
6307;DHT22;3186;54.062;9.962;2023-04-24T00:47:16;14.50;99.90
6307;DHT22;3186;54.062;9.962;2023-04-24T00:49:42;14.60;99.90
6307;DHT22;3186;54.062;9.962;2023-04-24T00:52:08;14.50;99.90
6307;DHT22;3186;54.062;9.962;2023-04-24T00:54:35;14.50;99.90
6307;DHT22;3186;54.062;9.962;2023-04-24T00:57:05;14.50;99.90
6307;DHT22;3186;54.062;9.962;2023-04-24T00:59:32;14.50;99.90
6307;DHT22;3186;54.062;9.962;2023-04-24T01:01:58;14.50;99.90
6307;DHT22;3186;54.062;9.962;2023-04-24T01:04:25;14.50;99.90
6307;DHT22;3186;54.062;9.962;2023-04-24T01:06:51;14.50;99.90
6307;DHT22;3186;54.062;9.962;2023-04-24T01:09:19;14.50;99.90
6307;DHT22;3186;54.062;9.962;2023-04-24T01:11:46;14.40;99.90
6307;DHT22;3186;54.062;9.962;2023-04-24T01:14:12;14.40;99.90
6307;DHT22;3186;54.062;9.962;2023-04-24T01:16:38;14.40;99.90
6307;DHT22;3186;54.062;9.962;2023-04-24T01:19:06;14.40;99.90
6307;DHT22;3186;54.062;9.962;2023-04-24T01:21:35;14.30;99.90
6307;DHT22;3186;54.062;9.962;2023-04-24T01:24:03;14.30;99.90
6307;DHT22;3186;54.062;9.962;2023-04-24T01:26:29;14.30;99.90
6307;DHT22;3186;54.062;9.962;2023-04-24T01:28:55;14.30;99.90
6307;DHT22;3186;54.062;9.962;2023-04-24T01:31:22;14.30;99.90
6307;DHT22;3186;54.062;9.962;2023-04-24T01:33:48;14.20;99.90
6307;DHT22;3186;54.062;9.962;2023-04-24T01:36:14;14.30;99.90
6307;DHT22;3186;54.062;9.962;2023-04-24T01:38:41;14.30;99.90
6307;DHT22;3186;54.062;9.962;2023-04-24T01:41:07;14.20;99.90
6307;DHT22;3186;54.062;9.962;2023-04-24T01:43:33;14.20;99.90
6307;DHT22;3186;54.062;9.962;2023-04-24T01:45:59;14.20;99.90
6307;DHT22;3186;54.062;9.962;2023-04-24T01:48:26;14.10;99.90
6307;DHT22;3186;54.062;9.962;2023-04-24T01:50:51;14.10;99.90
6307;DHT22;3186;54.062;9.962;2023-04-24T01:53:17;14.10;99.90
6307;DHT22;3186;54.062;9.962;2023-04-24T01:55:43;14.10;99.90
6307;DHT22;3186;54.062;9.962;2023-04-24T01:58:12;14.00;99.90
6307;DHT22;3186;54.062;9.962;2023-04-24T02:00:38;14.00;99.90
6307;DHT22;3186;54.062;9.962;2023-04-24T02:03:03;13.90;99.90
6307;DHT22;3186;54.062;9.962;2023-04-24T02:05:29;14.00;99.90
6307;DHT22;3186;54.062;9.962;2023-04-24T02:07:55;14.00;99.90
6307;DHT22;3186;54.062;9.962;2023-04-24T02:10:21;14.00;99.90
6307;DHT22;3186;54.062;9.962;2023-04-24T02:12:47;14.00;99.90
6307;DHT22;3186;54.062;9.962;2023-04-24T02:15:14;13.90;99.90
6307;DHT22;3186;54.062;9.962;2023-04-24T02:17:40;13.90;99.90
6307;DHT22;3186;54.062;9.962;2023-04-24T02:20:06;13.90;99.90
6307;DHT22;3186;54.062;9.962;2023-04-24T02:22:32;13.90;99.90
6307;DHT22;3186;54.062;9.962;2023-04-24T02:25:01;13.90;99.90
6307;DHT22;3186;54.062;9.962;2023-04-24T02:27:27;13.80;99.90
6307;DHT22;3186;54.062;9.962;2023-04-24T02:29:53;13.80;99.90
6307;DHT22;3186;54.062;9.962;2023-04-24T02:32:19;13.80;99.90
6307;DHT22;3186;54.062;9.962;2023-04-24T02:34:44;13.80;99.90
6307;DHT22;3186;54.062;9.962;2023-04-24T02:37:11;13.80;99.90
6307;DHT22;3186;54.062;9.962;2023-04-24T02:39:37;13.90;99.90
6307;DHT22;3186;54.062;9.962;2023-04-24T02:42:03;13.90;99.90
6307;DHT22;3186;54.062;9.962;2023-04-24T02:44:29;13.80;99.90
6307;DHT22;3186;54.062;9.962;2023-04-24T02:46:55;13.80;99.90
6307;DHT22;3186;54.062;9.962;2023-04-24T02:49:22;13.70;99.90
6307;DHT22;3186;54.062;9.962;2023-04-24T02:51:48;13.80;99.90
6307;DHT22;3186;54.062;9.962;2023-04-24T02:54:14;13.80;99.90
6307;DHT22;3186;54.062;9.962;2023-04-24T02:56:40;13.80;99.90
6307;DHT22;3186;54.062;9.962;2023-04-24T02:59:07;13.70;99.90
6307;DHT22;3186;54.062;9.962;2023-04-24T03:01:33;13.80;99.90
6307;DHT22;3186;54.062;9.962;2023-04-24T03:03:59;13.60;99.90
6307;DHT22;3186;54.062;9.962;2023-04-24T03:06:25;13.50;99.90
6307;DHT22;3186;54.062;9.962;2023-04-24T03:08:52;13.50;99.90
6307;DHT22;3186;54.062;9.962;2023-04-24T03:11:18;13.60;99.90
6307;DHT22;3186;54.062;9.962;2023-04-24T03:13:44;13.50;99.90
6307;DHT22;3186;54.062;9.962;2023-04-24T03:16:10;13.40;99.90
6307;DHT22;3186;54.062;9.962;2023-04-24T03:18:36;13.40;99.90
6307;DHT22;3186;54.062;9.962;2023-04-24T03:21:04;13.40;99.90
6307;DHT22;3186;54.062;9.962;2023-04-24T03:23:31;13.40;99.90
6307;DHT22;3186;54.062;9.962;2023-04-24T03:25:57;13.40;99.90
6307;DHT22;3186;54.062;9.962;2023-04-24T03:28:22;13.40;99.90
6307;DHT22;3186;54.062;9.962;2023-04-24T03:30:54;13.20;99.90
6307;DHT22;3186;54.062;9.962;2023-04-24T03:33:22;13.20;99.90
6307;DHT22;3186;54.062;9.962;2023-04-24T03:35:58;13.20;99.90
6307;DHT22;3186;54.062;9.962;2023-04-24T03:38:24;13.30;99.90
6307;DHT22;3186;54.062;9.962;2023-04-24T03:41:00;13.30;99.90
6307;DHT22;3186;54.062;9.962;2023-04-24T03:43:35;13.30;99.90
6307;DHT22;3186;54.062;9.962;2023-04-24T03:46:01;13.30;99.90
6307;DHT22;3186;54.062;9.962;2023-04-24T03:48:30;13.20;99.90
6307;DHT22;3186;54.062;9.962;2023-04-24T03:50:56;13.20;99.90
6307;DHT22;3186;54.062;9.962;2023-04-24T03:53:22;13.10;99.90
6307;DHT22;3186;54.062;9.962;2023-04-24T03:55:48;13.00;99.90
6307;DHT22;3186;54.062;9.962;2023-04-24T03:58:14;13.00;99.90
6307;DHT22;3186;54.062;9.962;2023-04-24T04:00:40;12.80;99.90
6307;DHT22;3186;54.062;9.962;2023-04-24T04:03:25;12.60;99.90
6307;DHT22;3186;54.062;9.962;2023-04-24T04:05:51;12.70;99.90
6307;DHT22;3186;54.062;9.962;2023-04-24T04:08:16;12.70;99.90
6307;DHT22;3186;54.062;9.962;2023-04-24T04:10:42;12.70;99.90
6307;DHT22;3186;54.062;9.962;2023-04-24T04:13:08;12.70;99.90
6307;DHT22;3186;54.062;9.962;2023-04-24T04:15:35;12.60;99.90
6307;DHT22;3186;54.062;9.962;2023-04-24T04:18:01;12.60;99.90
6307;DHT22;3186;54.062;9.962;2023-04-24T04:20:27;12.50;99.90
6307;DHT22;3186;54.062;9.962;2023-04-24T04:22:53;12.50;99.90
6307;DHT22;3186;54.062;9.962;2023-04-24T04:25:27;12.30;99.90
6307;DHT22;3186;54.062;9.962;2023-04-24T04:27:53;12.40;99.90
6307;DHT22;3186;54.062;9.962;2023-04-24T04:30:19;12.20;99.90
6307;DHT22;3186;54.062;9.962;2023-04-24T04:32:53;12.20;99.90
6307;DHT22;3186;54.062;9.962;2023-04-24T04:35:20;12.20;99.90
6307;DHT22;3186;54.062;9.962;2023-04-24T04:37:46;12.40;99.90
6307;DHT22;3186;54.062;9.962;2023-04-24T04:40:38;12.20;99.90
6307;DHT22;3186;54.062;9.962;2023-04-24T04:43:05;12.10;99.90
6307;DHT22;3186;54.062;9.962;2023-04-24T04:45:40;12.00;99.90
6307;DHT22;3186;54.062;9.962;2023-04-24T04:48:34;11.90;99.90
6307;DHT22;3186;54.062;9.962;2023-04-24T04:51:03;11.90;99.90
6307;DHT22;3186;54.062;9.962;2023-04-24T04:53:30;11.90;99.90
6307;DHT22;3186;54.062;9.962;2023-04-24T04:55:56;11.90;99.90
6307;DHT22;3186;54.062;9.962;2023-04-24T04:58:27;11.90;99.90
6307;DHT22;3186;54.062;9.962;2023-04-24T05:00:56;12.00;99.90
6307;DHT22;3186;54.062;9.962;2023-04-24T05:03:30;12.10;99.90
6307;DHT22;3186;54.062;9.962;2023-04-24T05:06:06;12.20;99.90
6307;DHT22;3186;54.062;9.962;2023-04-24T05:08:35;12.10;99.90
6307;DHT22;3186;54.062;9.962;2023-04-24T05:11:01;12.00;99.90
6307;DHT22;3186;54.062;9.962;2023-04-24T05:13:29;12.00;99.90
6307;DHT22;3186;54.062;9.962;2023-04-24T05:15:55;12.00;99.90
6307;DHT22;3186;54.062;9.962;2023-04-24T05:18:21;12.10;99.90
6307;DHT22;3186;54.062;9.962;2023-04-24T05:20:48;12.10;99.90
6307;DHT22;3186;54.062;9.962;2023-04-24T05:23:14;12.10;99.90
6307;DHT22;3186;54.062;9.962;2023-04-24T05:25:43;12.10;99.90
6307;DHT22;3186;54.062;9.962;2023-04-24T05:28:11;12.20;99.90
6307;DHT22;3186;54.062;9.962;2023-04-24T05:30:37;12.20;99.90
6307;DHT22;3186;54.062;9.962;2023-04-24T05:33:03;12.20;99.90
6307;DHT22;3186;54.062;9.962;2023-04-24T05:35:32;12.20;99.90
6307;DHT22;3186;54.062;9.962;2023-04-24T05:37:58;12.10;99.90
6307;DHT22;3186;54.062;9.962;2023-04-24T05:40:26;12.00;99.90
6307;DHT22;3186;54.062;9.962;2023-04-24T05:42:56;12.00;99.90
6307;DHT22;3186;54.062;9.962;2023-04-24T05:45:23;12.10;99.90
6307;DHT22;3186;54.062;9.962;2023-04-24T05:47:49;12.30;99.90
6307;DHT22;3186;54.062;9.962;2023-04-24T05:50:17;12.20;99.90
6307;DHT22;3186;54.062;9.962;2023-04-24T05:52:43;12.20;99.90
6307;DHT22;3186;54.062;9.962;2023-04-24T05:55:22;12.30;99.90
6307;DHT22;3186;54.062;9.962;2023-04-24T05:57:47;12.20;99.90
6307;DHT22;3186;54.062;9.962;2023-04-24T06:00:14;12.20;99.90
6307;DHT22;3186;54.062;9.962;2023-04-24T06:02:44;12.20;99.90
6307;DHT22;3186;54.062;9.962;2023-04-24T06:05:12;12.20;99.90
6307;DHT22;3186;54.062;9.962;2023-04-24T06:07:38;12.20;99.90
6307;DHT22;3186;54.062;9.962;2023-04-24T06:10:06;12.20;99.90
6307;DHT22;3186;54.062;9.962;2023-04-24T06:12:39;12.20;99.90
6307;DHT22;3186;54.062;9.962;2023-04-24T06:15:10;12.30;99.90
6307;DHT22;3186;54.062;9.962;2023-04-24T06:17:56;12.40;99.90
6307;DHT22;3186;54.062;9.962;2023-04-24T06:20:22;12.40;99.90
6307;DHT22;3186;54.062;9.962;2023-04-24T06:22:48;12.50;99.90
6307;DHT22;3186;54.062;9.962;2023-04-24T06:25:14;12.50;99.90
6307;DHT22;3186;54.062;9.962;2023-04-24T06:27:40;12.60;99.90
6307;DHT22;3186;54.062;9.962;2023-04-24T06:30:07;11.10;99.90
6307;DHT22;3186;54.062;9.962;2023-04-24T06:32:33;12.60;99.90
6307;DHT22;3186;54.062;9.962;2023-04-24T06:34:59;12.70;99.90
6307;DHT22;3186;54.062;9.962;2023-04-24T06:37:25;12.70;99.90
6307;DHT22;3186;54.062;9.962;2023-04-24T06:39:52;12.70;99.90
6307;DHT22;3186;54.062;9.962;2023-04-24T06:42:18;12.70;99.90
6307;DHT22;3186;54.062;9.962;2023-04-24T06:44:48;12.90;99.90
6307;DHT22;3186;54.062;9.962;2023-04-24T06:47:14;12.90;99.90
6307;DHT22;3186;54.062;9.962;2023-04-24T06:49:40;12.90;99.90
6307;DHT22;3186;54.062;9.962;2023-04-24T06:52:05;12.90;99.90
6307;DHT22;3186;54.062;9.962;2023-04-24T06:54:32;13.00;99.90
6307;DHT22;3186;54.062;9.962;2023-04-24T06:56:58;13.00;99.90
6307;DHT22;3186;54.062;9.962;2023-04-24T06:59:24;13.00;99.90
6307;DHT22;3186;54.062;9.962;2023-04-24T07:01:50;13.00;99.90
6307;DHT22;3186;54.062;9.962;2023-04-24T07:04:17;13.10;99.90
6307;DHT22;3186;54.062;9.962;2023-04-24T07:06:44;13.10;99.90
6307;DHT22;3186;54.062;9.962;2023-04-24T07:09:11;13.20;99.90
6307;DHT22;3186;54.062;9.962;2023-04-24T07:11:38;13.20;99.90
6307;DHT22;3186;54.062;9.962;2023-04-24T07:14:06;13.30;99.90
6307;DHT22;3186;54.062;9.962;2023-04-24T07:16:32;13.30;99.90
6307;DHT22;3186;54.062;9.962;2023-04-24T07:18:58;13.30;99.90
6307;DHT22;3186;54.062;9.962;2023-04-24T07:21:24;13.30;99.90
6307;DHT22;3186;54.062;9.962;2023-04-24T07:23:51;13.40;99.90
6307;DHT22;3186;54.062;9.962;2023-04-24T07:26:17;13.40;99.90
6307;DHT22;3186;54.062;9.962;2023-04-24T07:28:43;13.40;99.90
6307;DHT22;3186;54.062;9.962;2023-04-24T07:31:10;13.40;99.90
6307;DHT22;3186;54.062;9.962;2023-04-24T07:33:37;13.40;99.90
6307;DHT22;3186;54.062;9.962;2023-04-24T07:36:03;13.50;99.90
6307;DHT22;3186;54.062;9.962;2023-04-24T07:38:30;13.50;99.90
6307;DHT22;3186;54.062;9.962;2023-04-24T07:40:56;13.50;99.90
6307;DHT22;3186;54.062;9.962;2023-04-24T07:43:22;13.50;99.90
6307;DHT22;3186;54.062;9.962;2023-04-24T07:45:50;13.60;99.90
6307;DHT22;3186;54.062;9.962;2023-04-24T07:48:16;13.60;99.90
6307;DHT22;3186;54.062;9.962;2023-04-24T07:50:44;13.50;99.90
6307;DHT22;3186;54.062;9.962;2023-04-24T07:53:10;13.60;99.90
6307;DHT22;3186;54.062;9.962;2023-04-24T07:55:36;13.70;99.90
6307;DHT22;3186;54.062;9.962;2023-04-24T07:58:02;13.70;99.90
6307;DHT22;3186;54.062;9.962;2023-04-24T08:00:28;13.60;99.90
6307;DHT22;3186;54.062;9.962;2023-04-24T08:02:54;13.70;99.90
6307;DHT22;3186;54.062;9.962;2023-04-24T08:05:19;13.70;99.90
6307;DHT22;3186;54.062;9.962;2023-04-24T08:07:46;13.70;99.90
6307;DHT22;3186;54.062;9.962;2023-04-24T08:10:14;13.70;99.90
6307;DHT22;3186;54.062;9.962;2023-04-24T08:12:41;13.80;99.90
6307;DHT22;3186;54.062;9.962;2023-04-24T08:15:07;13.70;99.90
6307;DHT22;3186;54.062;9.962;2023-04-24T08:17:34;13.60;99.90
6307;DHT22;3186;54.062;9.962;2023-04-24T08:20:01;13.60;99.90
6307;DHT22;3186;54.062;9.962;2023-04-24T08:22:30;13.60;99.90
6307;DHT22;3186;54.062;9.962;2023-04-24T08:24:56;13.50;99.90
6307;DHT22;3186;54.062;9.962;2023-04-24T08:27:23;13.60;99.90
6307;DHT22;3186;54.062;9.962;2023-04-24T08:29:49;13.60;99.90
6307;DHT22;3186;54.062;9.962;2023-04-24T08:32:15;13.70;99.90
6307;DHT22;3186;54.062;9.962;2023-04-24T08:34:41;13.60;99.90
6307;DHT22;3186;54.062;9.962;2023-04-24T08:37:07;13.60;99.90
6307;DHT22;3186;54.062;9.962;2023-04-24T08:39:33;13.70;99.90
6307;DHT22;3186;54.062;9.962;2023-04-24T08:42:00;13.60;99.90
6307;DHT22;3186;54.062;9.962;2023-04-24T08:44:34;13.60;99.90
6307;DHT22;3186;54.062;9.962;2023-04-24T08:47:04;13.70;99.90
6307;DHT22;3186;54.062;9.962;2023-04-24T08:49:31;13.80;99.90
6307;DHT22;3186;54.062;9.962;2023-04-24T08:51:57;13.70;99.90
6307;DHT22;3186;54.062;9.962;2023-04-24T08:54:23;13.60;99.90
6307;DHT22;3186;54.062;9.962;2023-04-24T08:56:50;13.80;99.90
6307;DHT22;3186;54.062;9.962;2023-04-24T08:59:19;13.70;99.90
6307;DHT22;3186;54.062;9.962;2023-04-24T09:01:45;13.70;99.90
6307;DHT22;3186;54.062;9.962;2023-04-24T09:04:14;13.70;99.90
6307;DHT22;3186;54.062;9.962;2023-04-24T09:06:42;13.70;99.90
6307;DHT22;3186;54.062;9.962;2023-04-24T09:09:08;13.60;99.90
6307;DHT22;3186;54.062;9.962;2023-04-24T09:11:37;13.60;99.90
6307;DHT22;3186;54.062;9.962;2023-04-24T09:14:03;13.60;99.90
6307;DHT22;3186;54.062;9.962;2023-04-24T09:16:30;13.60;99.90
6307;DHT22;3186;54.062;9.962;2023-04-24T09:18:58;13.60;99.90
6307;DHT22;3186;54.062;9.962;2023-04-24T09:21:24;13.60;99.90
6307;DHT22;3186;54.062;9.962;2023-04-24T09:24:02;13.60;99.90
6307;DHT22;3186;54.062;9.962;2023-04-24T09:26:35;13.80;99.90
6307;DHT22;3186;54.062;9.962;2023-04-24T09:29:02;13.70;99.90
6307;DHT22;3186;54.062;9.962;2023-04-24T09:31:29;13.80;99.90
6307;DHT22;3186;54.062;9.962;2023-04-24T09:34:03;13.80;99.90
6307;DHT22;3186;54.062;9.962;2023-04-24T09:36:33;13.70;99.20
6307;DHT22;3186;54.062;9.962;2023-04-24T09:39:00;13.80;99.90
6307;DHT22;3186;54.062;9.962;2023-04-24T09:41:27;13.90;99.90
6307;DHT22;3186;54.062;9.962;2023-04-24T09:43:54;13.80;99.40
6307;DHT22;3186;54.062;9.962;2023-04-24T09:46:20;13.90;99.90
6307;DHT22;3186;54.062;9.962;2023-04-24T09:48:50;13.80;99.90
6307;DHT22;3186;54.062;9.962;2023-04-24T09:51:15;13.90;99.90
6307;DHT22;3186;54.062;9.962;2023-04-24T09:53:46;14.00;99.90
6307;DHT22;3186;54.062;9.962;2023-04-24T09:56:18;13.90;96.70
6307;DHT22;3186;54.062;9.962;2023-04-24T09:58:46;13.90;99.90
6307;DHT22;3186;54.062;9.962;2023-04-24T10:01:12;14.00;98.20
6307;DHT22;3186;54.062;9.962;2023-04-24T10:03:38;14.00;99.90
6307;DHT22;3186;54.062;9.962;2023-04-24T10:06:07;14.00;98.80
6307;DHT22;3186;54.062;9.962;2023-04-24T10:08:37;13.90;98.30
6307;DHT22;3186;54.062;9.962;2023-04-24T10:11:03;13.90;99.50
6307;DHT22;3186;54.062;9.962;2023-04-24T10:13:29;13.80;97.40
6307;DHT22;3186;54.062;9.962;2023-04-24T10:15:56;13.80;96.90
6307;DHT22;3186;54.062;9.962;2023-04-24T10:18:22;13.90;99.80
6307;DHT22;3186;54.062;9.962;2023-04-24T10:20:49;14.00;95.90
6307;DHT22;3186;54.062;9.962;2023-04-24T10:23:16;13.90;98.00
6307;DHT22;3186;54.062;9.962;2023-04-24T10:25:45;14.10;96.00
6307;DHT22;3186;54.062;9.962;2023-04-24T10:28:11;14.10;92.20
6307;DHT22;3186;54.062;9.962;2023-04-24T10:30:38;14.10;94.50
6307;DHT22;3186;54.062;9.962;2023-04-24T10:33:06;14.20;94.00
6307;DHT22;3186;54.062;9.962;2023-04-24T10:35:37;14.30;90.50
6307;DHT22;3186;54.062;9.962;2023-04-24T10:38:08;14.30;92.50
6307;DHT22;3186;54.062;9.962;2023-04-24T10:40:35;14.30;91.50
6307;DHT22;3186;54.062;9.962;2023-04-24T10:43:05;14.30;92.30
6307;DHT22;3186;54.062;9.962;2023-04-24T10:45:33;14.30;91.50
6307;DHT22;3186;54.062;9.962;2023-04-24T10:48:03;14.20;92.30
6307;DHT22;3186;54.062;9.962;2023-04-24T10:50:41;14.30;93.20
6307;DHT22;3186;54.062;9.962;2023-04-24T10:53:18;14.20;93.40
6307;DHT22;3186;54.062;9.962;2023-04-24T10:58:12;14.30;91.50
6307;DHT22;3186;54.062;9.962;2023-04-24T11:00:39;14.30;92.90
6307;DHT22;3186;54.062;9.962;2023-04-24T11:03:24;14.40;91.30
6307;DHT22;3186;54.062;9.962;2023-04-24T11:11:00;14.60;91.50
6307;DHT22;3186;54.062;9.962;2023-04-24T11:16:44;14.60;90.70
6307;DHT22;3186;54.062;9.962;2023-04-24T11:19:19;14.70;87.60
6307;DHT22;3186;54.062;9.962;2023-04-24T11:21:56;14.50;88.90
6307;DHT22;3186;54.062;9.962;2023-04-24T11:24:29;14.60;93.80
6307;DHT22;3186;54.062;9.962;2023-04-24T11:27:11;14.50;91.30
6307;DHT22;3186;54.062;9.962;2023-04-24T11:32:24;14.30;88.90
6307;DHT22;3186;54.062;9.962;2023-04-24T11:34:53;14.30;78.10
6307;DHT22;3186;54.062;9.962;2023-04-24T11:37:20;14.40;92.20
6307;DHT22;3186;54.062;9.962;2023-04-24T11:39:46;14.60;86.80
6307;DHT22;3186;54.062;9.962;2023-04-24T11:42:15;14.70;79.90
6307;DHT22;3186;54.062;9.962;2023-04-24T11:44:42;14.60;78.80
6307;DHT22;3186;54.062;9.962;2023-04-24T11:47:08;14.60;78.80
6307;DHT22;3186;54.062;9.962;2023-04-24T11:49:38;14.70;77.80
6307;DHT22;3186;54.062;9.962;2023-04-24T11:52:04;14.70;79.20
6307;DHT22;3186;54.062;9.962;2023-04-24T11:54:30;14.60;73.00
6307;DHT22;3186;54.062;9.962;2023-04-24T11:56:57;14.60;81.20
6307;DHT22;3186;54.062;9.962;2023-04-24T11:59:23;14.70;81.30
6307;DHT22;3186;54.062;9.962;2023-04-24T12:01:49;14.80;75.90
6307;DHT22;3186;54.062;9.962;2023-04-24T12:04:17;14.70;74.10
6307;DHT22;3186;54.062;9.962;2023-04-24T12:07:09;14.70;74.00
6307;DHT22;3186;54.062;9.962;2023-04-24T12:12:08;14.90;72.20
6307;DHT22;3186;54.062;9.962;2023-04-24T12:14:48;15.00;73.20
6307;DHT22;3186;54.062;9.962;2023-04-24T12:17:16;15.10;70.30
6307;DHT22;3186;54.062;9.962;2023-04-24T12:19:48;15.30;68.60
6307;DHT22;3186;54.062;9.962;2023-04-24T12:22:14;15.30;78.20
6307;DHT22;3186;54.062;9.962;2023-04-24T12:27:33;15.00;56.80
6307;DHT22;3186;54.062;9.962;2023-04-24T12:30:00;15.10;71.70
6307;DHT22;3186;54.062;9.962;2023-04-24T12:32:26;15.10;70.50
6307;DHT22;3186;54.062;9.962;2023-04-24T12:34:53;15.20;65.20
6307;DHT22;3186;54.062;9.962;2023-04-24T12:37:19;15.00;64.40
6307;DHT22;3186;54.062;9.962;2023-04-24T12:42:31;15.40;68.00
6307;DHT22;3186;54.062;9.962;2023-04-24T12:45:04;15.30;60.10
6307;DHT22;3186;54.062;9.962;2023-04-24T12:47:32;15.20;54.90
6307;DHT22;3186;54.062;9.962;2023-04-24T12:49:59;15.10;60.20
6307;DHT22;3186;54.062;9.962;2023-04-24T12:52:27;15.00;57.00
6307;DHT22;3186;54.062;9.962;2023-04-24T12:54:55;15.10;70.60
6307;DHT22;3186;54.062;9.962;2023-04-24T12:57:22;15.10;64.20
6307;DHT22;3186;54.062;9.962;2023-04-24T12:59:48;15.30;61.80
6307;DHT22;3186;54.062;9.962;2023-04-24T13:02:14;15.30;74.00
6307;DHT22;3186;54.062;9.962;2023-04-24T13:04:49;15.30;64.40
6307;DHT22;3186;54.062;9.962;2023-04-24T13:07:15;15.40;69.80
6307;DHT22;3186;54.062;9.962;2023-04-24T13:09:43;15.40;72.20
6307;DHT22;3186;54.062;9.962;2023-04-24T13:12:09;15.30;68.10
6307;DHT22;3186;54.062;9.962;2023-04-24T13:14:35;15.30;70.60
6307;DHT22;3186;54.062;9.962;2023-04-24T13:17:01;15.30;69.00
6307;DHT22;3186;54.062;9.962;2023-04-24T13:19:28;15.10;65.70
6307;DHT22;3186;54.062;9.962;2023-04-24T13:21:56;15.10;71.40
6307;DHT22;3186;54.062;9.962;2023-04-24T13:24:23;15.10;58.40
6307;DHT22;3186;54.062;9.962;2023-04-24T13:26:54;14.90;65.50
6307;DHT22;3186;54.062;9.962;2023-04-24T13:29:22;15.00;66.10
6307;DHT22;3186;54.062;9.962;2023-04-24T13:31:51;15.00;74.50
6307;DHT22;3186;54.062;9.962;2023-04-24T13:34:20;15.00;77.00
6307;DHT22;3186;54.062;9.962;2023-04-24T13:36:46;15.10;74.80
6307;DHT22;3186;54.062;9.962;2023-04-24T13:39:12;15.10;72.00
6307;DHT22;3186;54.062;9.962;2023-04-24T13:41:38;14.90;73.70
6307;DHT22;3186;54.062;9.962;2023-04-24T13:44:04;14.80;73.70
6307;DHT22;3186;54.062;9.962;2023-04-24T13:46:30;14.70;76.10
6307;DHT22;3186;54.062;9.962;2023-04-24T13:48:56;14.90;69.60
6307;DHT22;3186;54.062;9.962;2023-04-24T13:51:23;14.80;69.30
6307;DHT22;3186;54.062;9.962;2023-04-24T13:53:49;15.00;71.30
6307;DHT22;3186;54.062;9.962;2023-04-24T13:56:15;15.00;68.00
6307;DHT22;3186;54.062;9.962;2023-04-24T13:58:41;14.90;67.10
6307;DHT22;3186;54.062;9.962;2023-04-24T14:01:07;14.90;62.50
6307;DHT22;3186;54.062;9.962;2023-04-24T14:03:33;14.90;69.20
6307;DHT22;3186;54.062;9.962;2023-04-24T14:05:59;15.00;75.50
6307;DHT22;3186;54.062;9.962;2023-04-24T14:08:25;15.10;70.60
6307;DHT22;3186;54.062;9.962;2023-04-24T14:10:51;15.30;73.30
6307;DHT22;3186;54.062;9.962;2023-04-24T14:13:17;15.10;67.90
6307;DHT22;3186;54.062;9.962;2023-04-24T14:15:43;15.10;77.00
6307;DHT22;3186;54.062;9.962;2023-04-24T14:18:09;15.00;76.60
6307;DHT22;3186;54.062;9.962;2023-04-24T14:20:35;14.90;82.10
6307;DHT22;3186;54.062;9.962;2023-04-24T14:23:00;14.90;86.20
6307;DHT22;3186;54.062;9.962;2023-04-24T14:25:26;15.00;79.90
6307;DHT22;3186;54.062;9.962;2023-04-24T14:27:52;15.00;78.90
6307;DHT22;3186;54.062;9.962;2023-04-24T14:30:18;14.70;89.20
6307;DHT22;3186;54.062;9.962;2023-04-24T14:32:45;15.00;84.40
6307;DHT22;3186;54.062;9.962;2023-04-24T14:35:11;15.00;86.00
6307;DHT22;3186;54.062;9.962;2023-04-24T14:37:37;15.10;86.20
6307;DHT22;3186;54.062;9.962;2023-04-24T14:40:03;15.20;81.80
6307;DHT22;3186;54.062;9.962;2023-04-24T14:42:34;14.90;86.10
6307;DHT22;3186;54.062;9.962;2023-04-24T14:44:59;14.80;90.60
6307;DHT22;3186;54.062;9.962;2023-04-24T14:47:25;15.00;89.60
6307;DHT22;3186;54.062;9.962;2023-04-24T14:49:51;14.90;91.10
6307;DHT22;3186;54.062;9.962;2023-04-24T14:52:17;14.60;90.80
6307;DHT22;3186;54.062;9.962;2023-04-24T14:54:43;14.40;95.20
6307;DHT22;3186;54.062;9.962;2023-04-24T14:57:09;14.50;96.20
6307;DHT22;3186;54.062;9.962;2023-04-24T14:59:35;14.60;95.20
6307;DHT22;3186;54.062;9.962;2023-04-24T15:02:01;14.70;92.70
6307;DHT22;3186;54.062;9.962;2023-04-24T15:04:27;14.70;92.50
6307;DHT22;3186;54.062;9.962;2023-04-24T15:06:54;14.80;88.90
6307;DHT22;3186;54.062;9.962;2023-04-24T15:09:24;14.80;90.60
6307;DHT22;3186;54.062;9.962;2023-04-24T15:11:51;14.60;91.10
6307;DHT22;3186;54.062;9.962;2023-04-24T15:14:18;14.50;92.10
6307;DHT22;3186;54.062;9.962;2023-04-24T15:16:44;14.50;93.50
6307;DHT22;3186;54.062;9.962;2023-04-24T15:19:10;14.40;93.20
6307;DHT22;3186;54.062;9.962;2023-04-24T15:21:37;14.40;94.10
6307;DHT22;3186;54.062;9.962;2023-04-24T15:24:04;14.50;93.00
6307;DHT22;3186;54.062;9.962;2023-04-24T15:26:30;14.30;94.30
6307;DHT22;3186;54.062;9.962;2023-04-24T15:28:56;14.20;96.30
6307;DHT22;3186;54.062;9.962;2023-04-24T15:31:22;14.30;95.90
6307;DHT22;3186;54.062;9.962;2023-04-24T15:33:49;13.80;99.90
6307;DHT22;3186;54.062;9.962;2023-04-24T15:36:16;14.00;99.90
6307;DHT22;3186;54.062;9.962;2023-04-24T15:38:43;13.90;99.90
6307;DHT22;3186;54.062;9.962;2023-04-24T15:41:09;13.90;99.90
6307;DHT22;3186;54.062;9.962;2023-04-24T15:43:36;13.90;99.90
6307;DHT22;3186;54.062;9.962;2023-04-24T15:46:04;14.10;99.90
6307;DHT22;3186;54.062;9.962;2023-04-24T15:48:31;13.50;99.90
6307;DHT22;3186;54.062;9.962;2023-04-24T15:51:00;13.40;99.90
6307;DHT22;3186;54.062;9.962;2023-04-24T15:53:26;13.60;99.90
6307;DHT22;3186;54.062;9.962;2023-04-24T15:55:54;13.70;99.90
6307;DHT22;3186;54.062;9.962;2023-04-24T15:58:22;13.30;99.90
6307;DHT22;3186;54.062;9.962;2023-04-24T16:00:48;13.60;99.90
6307;DHT22;3186;54.062;9.962;2023-04-24T16:03:14;13.80;99.90
6307;DHT22;3186;54.062;9.962;2023-04-24T16:05:40;13.70;99.90
6307;DHT22;3186;54.062;9.962;2023-04-24T16:08:06;13.70;99.90
6307;DHT22;3186;54.062;9.962;2023-04-24T16:10:32;13.20;99.90
6307;DHT22;3186;54.062;9.962;2023-04-24T16:12:58;13.20;99.90
6307;DHT22;3186;54.062;9.962;2023-04-24T16:15:29;13.30;99.90
6307;DHT22;3186;54.062;9.962;2023-04-24T16:17:55;13.30;99.90
6307;DHT22;3186;54.062;9.962;2023-04-24T16:20:21;13.00;99.90
6307;DHT22;3186;54.062;9.962;2023-04-24T16:22:47;12.80;99.90
6307;DHT22;3186;54.062;9.962;2023-04-24T16:25:13;13.00;99.90